Weather at Pantnagar Airport

Public forecast

Using degrees Celsius for public forecast. Weather courtesy of forecast.io.

Current aviation weather report (METAR) for Pantnagar Airport

Retrieved 2020/09/28 02:30 UTC (14 minutes ago):

VIPT 280230Z 00000KT 4000 BR NSC 23/21 Q1008

Aviation forecast (TAF) for Pantnagar Airport

Forecast is more than 12 hours old.

Retrieved 2016/07/10 06:00 UTC (4 years ago):

TAF VIPT 100500Z 1006/1015 24005KT 4000 HZ FEW040 SCT100 TEMPO 1010/1015 2000 -TSRA SCT030 FEW035CB BKN090